Sebago Lake, ME

4:33 PM EDT on October 01, 2016 (GMT -0400)
Saint Joseph's College | | Change Station

Elev 377 ft 43.83 °N, 70.48 °W | Updated 6 seconds ago

Overcast
Overcast
59.6 °F
Feels Like 59.6 °F
N
1.0
Wind Variable Wind from NE
Gusts 4.0 mph

Today
High -- | Low -- °F
--% Chance of Precip.
Yesterday
High -- | Low -- °F
Precip. -- in
Pressure 30.30 in
Visibility 10.0 miles
Clouds Few 1700 ft
Mostly Cloudy 4000 ft
Overcast 5500 ft
Dew Point 41 °F
Humidity 51%
Rainfall 0.00 in
Snow Depth Not available.
6:40 AM 6:21 PM
New Moon, 1% visible
METAR KPWM 011951Z 02009KT 10SM FEW017 BKN040 OVC055 14/09 A3029 RMK AO2 SLP258 T01440094 $
Pressure 30.30 in
Visibility 10.0 miles
Clouds Few 1700 ft
Mostly Cloudy 4000 ft
Overcast 5500 ft
Dew Point 41 °F
Humidity 51%
Rainfall 0.00 in
Snow Depth Not available.
6:40 AM 6:21 PM
New Moon, 1% visible
METAR KPWM 011951Z 02009KT 10SM FEW017 BKN040 OVC055 14/09 A3029 RMK AO2 SLP258 T01440094 $

10-Day Weather Forecast

Almanac

Astronomy

Oct. 01, 2016 Rise Set
Actual Time
Civil Twilight
Nautical Twilight
Astronomical Twilight
Moon
Length of Visible Light
Length of Day
Tomorrow will be .
, % of the Moon is Illuminated

Today's Extremes

State Highs State Lows

Community

WunderPhotos

Upload Photos

1,943,013 photos uploaded!

WunderBlog® & News

Nearby

Air Quality

  Air Quality AQ Index Pollutant
Not available.

Snow Depth

Station Depth Elevation

Earthquake Activity

City Distance Mag. Time & Date
Minimum magnitude displayed is 2.5.

Coastal Water Temperatures

Place Temperature

Stations

Nearby Weather Stations

Station Location Temp. Windchill Dew Point Humidity Wind Precip. Elev Updated Type
                   

Watches & Warnings

There are currently no watches in effect.